Terminal Aerodrome Forecast
Issued by NWS

Home | Current Version | Previous Version | Text Only | Print | Product List | Glossary On
Versions: 1 2 3 4 5 6 7 8 9 10 11 12 13 14 15
000
FTUS41 KPBZ 230734 AAA
TAFZZV
TAF AMD
KZZV 230734Z 2308/2406 19007KT 5SM -RA BR BKN007 BKN012 OVC018
     FM231000 21008KT 5SM -SHRA BR OVC010
     FM231700 23012G20KT 5SM SHRA VCTS OVC015CB
     FM240000 23008KT 3SM SHRA BR OVC008=

USA.gov is the U.S. government's official web portal to all federal, state and local government web resources and services.